createdAt,value
2023-01-22T00:00:33.375Z,25.15
2023-01-22T00:02:59.640Z,25.25
2023-01-22T00:05:25.945Z,20.83
2023-01-22T00:07:52.203Z,22.70
2023-01-22T00:10:18.942Z,21.80
2023-01-22T00:12:45.484Z,23.90
2023-01-22T00:15:11.899Z,22.58
2023-01-22T00:17:38.200Z,23.70
2023-01-22T00:20:06.248Z,20.70
2023-01-22T00:22:32.554Z,27.27
2023-01-22T00:24:58.969Z,23.40
2023-01-22T00:27:25.272Z,27.85
2023-01-22T00:29:51.572Z,23.85
2023-01-22T00:32:17.976Z,21.45
2023-01-22T00:34:50.608Z,22.38
2023-01-22T00:37:16.837Z,22.77
2023-01-22T00:39:43.108Z,21.63
2023-01-22T00:42:09.400Z,22.23
2023-01-22T00:44:35.679Z,22.70
2023-01-22T00:47:01.925Z,23.02
2023-01-22T00:49:28.313Z,28.67
2023-01-22T00:51:54.627Z,19.63
2023-01-22T00:54:20.938Z,21.83
2023-01-22T00:56:47.190Z,21.05
2023-01-22T00:59:13.550Z,24.95
2023-01-22T01:01:39.958Z,21.55
2023-01-22T01:04:06.317Z,21.90
2023-01-22T01:06:32.905Z,24.17
2023-01-22T01:08:59.305Z,21.98
2023-01-22T01:11:26.281Z,21.17
2023-01-22T01:13:53.017Z,22.45
2023-01-22T01:16:23.900Z,22.17
2023-01-22T01:18:50.420Z,21.90
2023-01-22T01:21:17.218Z,21.00
2023-01-22T01:23:43.513Z,18.02
2023-01-22T01:26:11.293Z,20.40
2023-01-22T01:28:38.275Z,17.92
2023-01-22T01:31:06.355Z,24.08
2023-01-22T01:33:32.878Z,20.27
2023-01-22T01:36:00.071Z,20.08
2023-01-22T01:38:26.355Z,20.33
2023-01-22T01:40:52.655Z,24.60
2023-01-22T01:43:19.037Z,18.70
2023-01-22T01:45:45.302Z,17.63
2023-01-22T01:48:23.767Z,20.33
2023-01-22T01:51:08.548Z,19.63
2023-01-22T01:53:35.063Z,20.50
2023-01-22T01:56:02.954Z,17.50
2023-01-22T01:58:30.718Z,20.13
2023-01-22T02:00:59.912Z,17.70
2023-01-22T02:03:26.975Z,17.58
2023-01-22T02:05:53.215Z,18.42
2023-01-22T02:08:19.510Z,16.98
2023-01-22T02:10:46.718Z,17.58
2023-01-22T02:13:16.991Z,19.80
2023-01-22T02:15:43.345Z,15.95
2023-01-22T02:18:09.649Z,17.48
2023-01-22T02:20:36.912Z,18.58
2023-01-22T02:23:03.508Z,15.45
2023-01-22T02:25:29.797Z,19.42
2023-01-22T02:27:56.093Z,17.13
2023-01-22T02:30:22.388Z,16.98
2023-01-22T02:32:48.611Z,15.82
2023-01-22T02:35:14.909Z,13.95
2023-01-22T02:37:41.146Z,17.10
2023-01-22T02:40:07.753Z,15.63
2023-01-22T02:42:34.111Z,16.95
2023-01-22T02:45:00.428Z,18.55
2023-01-22T02:47:26.721Z,16.08
2023-01-22T02:49:52.955Z,18.75
2023-01-22T02:52:19.239Z,16.33
2023-01-22T02:54:45.521Z,16.13
2023-01-22T02:57:11.787Z,12.73
2023-01-22T02:59:38.145Z,16.15
2023-01-22T03:02:04.487Z,18.33
2023-01-22T03:04:30.911Z,18.75
2023-01-22T03:06:57.337Z,14.35
2023-01-22T03:09:23.641Z,15.40
2023-01-22T03:11:50.006Z,15.95
2023-01-22T03:14:35.254Z,13.45
2023-01-22T03:17:20.114Z,13.32
2023-01-22T03:20:04.795Z,16.52
2023-01-22T03:22:31.151Z,12.65
2023-01-22T03:24:58.675Z,16.15
2023-01-22T03:27:26.014Z,19.58
2023-01-22T03:29:52.415Z,15.40
2023-01-22T03:32:19.296Z,15.18
2023-01-22T03:34:45.594Z,15.73
2023-01-22T03:37:12.810Z,14.80
2023-01-22T03:39:40.159Z,16.05
2023-01-22T03:42:06.950Z,14.80
2023-01-22T03:44:33.357Z,15.95
2023-01-22T03:46:59.644Z,16.05
2023-01-22T03:49:25.949Z,13.13
2023-01-22T03:51:52.211Z,19.02
2023-01-22T03:54:18.472Z,15.40
2023-01-22T03:56:44.744Z,19.40
2023-01-22T03:59:11.128Z,15.15
2023-01-22T04:01:37.520Z,14.57
2023-01-22T04:04:04.312Z,13.57
2023-01-22T04:06:30.618Z,17.45
2023-01-22T04:08:57.080Z,16.55
2023-01-22T04:11:23.730Z,15.88
2023-01-22T04:13:50.133Z,13.98
2023-01-22T04:16:16.897Z,12.82
2023-01-22T04:18:43.355Z,14.82
2023-01-22T04:21:09.737Z,13.63
2023-01-22T04:23:36.037Z,17.27
2023-01-22T04:26:02.344Z,14.77
2023-01-22T04:28:28.617Z,15.60
2023-01-22T04:30:55.261Z,16.15
2023-01-22T04:33:21.663Z,14.40
2023-01-22T04:35:51.889Z,17.88
2023-01-22T04:38:18.367Z,15.52
2023-01-22T04:40:44.675Z,15.70
2023-01-22T04:43:11.317Z,15.48
2023-01-22T04:45:37.688Z,19.48
2023-01-22T04:48:04.138Z,16.42
2023-01-22T04:50:31.275Z,18.05
2023-01-22T04:52:57.611Z,20.00
2023-01-22T04:55:24.822Z,15.95
2023-01-22T04:57:53.601Z,18.30
2023-01-22T05:00:20.236Z,17.20
2023-01-22T05:02:46.950Z,17.00
2023-01-22T05:05:13.404Z,16.23
2023-01-22T05:07:39.664Z,16.83
2023-01-22T05:10:06.264Z,19.20
2023-01-22T05:12:32.600Z,19.23
2023-01-22T05:14:59.378Z,22.70
2023-01-22T05:17:25.769Z,22.42
2023-01-22T05:19:52.108Z,21.20
2023-01-22T05:22:18.426Z,18.48
2023-01-22T05:24:44.759Z,17.42
2023-01-22T05:27:11.092Z,18.20
2023-01-22T05:29:37.420Z,17.40
2023-01-22T05:32:03.977Z,18.20
2023-01-22T05:34:30.284Z,18.50
2023-01-22T05:36:56.630Z,18.45
2023-01-22T05:39:24.161Z,15.63
2023-01-22T05:41:50.627Z,15.27
2023-01-22T05:44:17.077Z,15.02
2023-01-22T05:46:43.350Z,18.42
2023-01-22T05:49:09.662Z,17.48
2023-01-22T05:51:36.060Z,15.80
2023-01-22T05:54:02.417Z,14.40
2023-01-22T05:56:28.820Z,15.23
2023-01-22T05:58:55.214Z,15.80
2023-01-22T06:01:21.587Z,13.60
2023-01-22T06:03:48.235Z,16.38
2023-01-22T06:06:14.960Z,14.35
2023-01-22T06:08:41.581Z,20.15
2023-01-22T06:11:10.270Z,13.30
2023-01-22T06:13:36.884Z,11.23
2023-01-22T06:16:03.742Z,13.48
2023-01-22T06:18:30.099Z,15.63
2023-01-22T06:21:00.146Z,15.00
2023-01-22T06:23:27.955Z,12.15
2023-01-22T06:25:55.066Z,14.18
2023-01-22T06:28:21.729Z,16.30
2023-01-22T06:30:48.520Z,15.13
2023-01-22T06:33:14.862Z,16.00
2023-01-22T06:35:41.306Z,17.92
2023-01-22T06:38:07.836Z,13.48
2023-01-22T06:40:34.268Z,11.27
2023-01-22T06:43:10.620Z,14.70
2023-01-22T06:45:38.409Z,11.63
2023-01-22T06:48:04.885Z,12.98
2023-01-22T06:50:31.221Z,18.95
2023-01-22T06:52:57.482Z,13.38
2023-01-22T06:55:23.814Z,14.82
2023-01-22T06:57:50.099Z,17.30
2023-01-22T07:00:16.988Z,14.00
2023-01-22T07:02:43.417Z,12.35
2023-01-22T07:05:09.982Z,16.77
2023-01-22T07:07:36.314Z,11.05
2023-01-22T07:10:02.853Z,18.08
2023-01-22T07:12:29.151Z,15.45
2023-01-22T07:14:55.473Z,14.73
2023-01-22T07:17:21.807Z,15.27
2023-01-22T07:19:48.361Z,15.32
2023-01-22T07:22:14.674Z,12.70
2023-01-22T07:24:40.966Z,13.82
2023-01-22T07:27:07.246Z,12.52
2023-01-22T07:29:33.581Z,11.60
2023-01-22T07:31:59.864Z,12.02
2023-01-22T07:34:26.132Z,13.18
2023-01-22T07:36:52.810Z,13.32
2023-01-22T07:39:19.113Z,12.52
2023-01-22T07:41:45.462Z,17.45
2023-01-22T07:44:12.561Z,15.15
2023-01-22T07:46:41.710Z,16.83
2023-01-22T07:49:08.031Z,12.82
2023-01-22T07:51:34.753Z,12.45
2023-01-22T07:54:01.007Z,10.55
2023-01-22T07:56:27.308Z,11.70
2023-01-22T07:58:53.595Z,12.52
2023-01-22T08:01:19.882Z,11.68
2023-01-22T08:03:46.266Z,12.77
2023-01-22T08:06:15.494Z,9.93
2023-01-22T08:08:42.584Z,9.25
2023-01-22T08:11:09.114Z,11.77
2023-01-22T08:13:35.569Z,9.88
2023-01-22T08:16:01.933Z,14.15
2023-01-22T08:18:28.663Z,10.88
2023-01-22T08:20:55.019Z,12.13
2023-01-22T08:23:22.090Z,13.77
2023-01-22T08:25:48.615Z,11.88
2023-01-22T08:28:14.969Z,14.55
2023-01-22T08:30:46.492Z,10.88
2023-01-22T08:33:15.532Z,10.50
2023-01-22T08:35:41.823Z,14.25
2023-01-22T08:38:08.128Z,13.48
2023-01-22T08:40:36.001Z,10.55
2023-01-22T08:43:03.480Z,9.80
2023-01-22T08:45:29.822Z,11.35
2023-01-22T08:47:58.019Z,10.93
2023-01-22T08:50:24.279Z,10.15
2023-01-22T08:52:50.544Z,11.07
2023-01-22T08:55:16.858Z,9.60
2023-01-22T08:57:43.162Z,10.73
2023-01-22T09:00:11.145Z,11.32
2023-01-22T09:02:37.435Z,12.38
2023-01-22T09:05:03.797Z,10.23
2023-01-22T09:07:30.073Z,9.32
2023-01-22T09:09:56.326Z,8.73
2023-01-22T09:12:22.617Z,11.43
2023-01-22T09:14:48.937Z,10.70
2023-01-22T09:17:15.253Z,9.90
2023-01-22T09:19:41.571Z,8.85
2023-01-22T09:22:07.826Z,9.88
2023-01-22T09:24:34.126Z,14.85
2023-01-22T09:27:00.427Z,10.15
2023-01-22T09:29:26.756Z,10.30
2023-01-22T09:31:53.874Z,9.25
2023-01-22T09:34:20.133Z,11.00
2023-01-22T09:36:46.669Z,12.25
2023-01-22T09:39:13.196Z,8.95
2023-01-22T09:41:41.319Z,11.80
2023-01-22T09:44:13.543Z,13.45
2023-01-22T09:46:48.094Z,11.07
2023-01-22T09:49:15.878Z,8.77
2023-01-22T09:51:44.085Z,10.85
2023-01-22T09:54:12.977Z,8.10
2023-01-22T09:56:41.459Z,9.02
2023-01-22T09:59:11.306Z,9.18
2023-01-22T10:01:37.671Z,8.98
2023-01-22T10:04:06.251Z,10.20
2023-01-22T10:06:32.731Z,9.50
2023-01-22T10:09:08.017Z,11.90
2023-01-22T10:11:34.428Z,10.18
2023-01-22T10:14:02.062Z,8.55
2023-01-22T10:16:28.451Z,9.90
2023-01-22T10:19:18.092Z,13.82
2023-01-22T10:21:46.428Z,9.98
2023-01-22T10:24:12.785Z,11.95
2023-01-22T10:26:39.059Z,10.88
2023-01-22T10:29:20.985Z,9.48
2023-01-22T10:31:48.314Z,10.23
2023-01-22T10:34:16.462Z,9.43
2023-01-22T10:36:48.522Z,13.13
2023-01-22T10:39:15.419Z,8.65
2023-01-22T10:41:43.886Z,10.68
2023-01-22T10:44:16.052Z,9.02
2023-01-22T10:46:42.708Z,8.75
2023-01-22T10:49:15.122Z,5.85
2023-01-22T10:51:43.949Z,9.70
2023-01-22T10:54:24.624Z,14.68
2023-01-22T10:56:51.258Z,8.13
2023-01-22T10:59:17.511Z,12.48
2023-01-22T11:01:43.911Z,8.60
2023-01-22T11:04:13.988Z,8.77
2023-01-22T11:06:51.148Z,7.82
2023-01-22T11:09:23.531Z,8.27
2023-01-22T11:11:57.504Z,11.02
2023-01-22T11:14:33.901Z,10.27
2023-01-22T11:17:05.997Z,8.00
2023-01-22T11:19:37.733Z,17.10
2023-01-22T11:22:06.204Z,9.57
2023-01-22T11:24:37.348Z,9.63
2023-01-22T11:27:08.708Z,9.25
2023-01-22T11:29:38.272Z,11.20
2023-01-22T11:32:10.423Z,10.65
2023-01-22T11:34:48.974Z,7.97
2023-01-22T11:37:33.547Z,9.45
2023-01-22T11:40:05.988Z,8.05
2023-01-22T11:42:41.393Z,8.63
2023-01-22T11:45:07.667Z,6.80
2023-01-22T11:47:46.173Z,8.07
2023-01-22T11:50:23.152Z,8.80
2023-01-22T11:53:05.393Z,10.80
2023-01-22T11:55:49.417Z,10.27
2023-01-22T11:58:27.503Z,7.00
2023-01-22T12:01:01.755Z,10.65
2023-01-22T12:03:48.377Z,7.93
2023-01-22T12:06:33.433Z,9.23
2023-01-22T12:08:59.644Z,7.63
2023-01-22T12:11:25.889Z,7.20
2023-01-22T12:14:01.476Z,8.90
2023-01-22T12:16:46.529Z,9.02
2023-01-22T12:19:27.402Z,11.53
2023-01-22T12:22:00.828Z,9.63
2023-01-22T12:24:33.086Z,8.50
2023-01-22T12:26:59.312Z,14.65
2023-01-22T12:29:29.538Z,20.02
2023-01-22T12:32:04.846Z,8.27
2023-01-22T12:34:34.406Z,14.38
2023-01-22T12:37:01.761Z,9.85
2023-01-22T12:39:51.426Z,9.65
2023-01-22T12:42:27.644Z,12.85
2023-01-22T12:45:06.201Z,11.57
2023-01-22T12:47:40.584Z,13.30
2023-01-22T12:50:16.130Z,9.25
2023-01-22T12:52:42.549Z,8.75
2023-01-22T12:55:23.018Z,10.55
2023-01-22T12:57:49.603Z,12.40
2023-01-22T13:00:35.847Z,9.52
2023-01-22T13:03:03.884Z,8.68
2023-01-22T13:05:30.202Z,9.10
2023-01-22T13:08:15.028Z,10.30
2023-01-22T13:10:51.240Z,13.80
2023-01-22T13:13:22.562Z,9.45
2023-01-22T13:16:06.182Z,13.73
2023-01-22T13:18:41.258Z,11.85
2023-01-22T13:21:09.077Z,9.13
2023-01-22T13:23:39.732Z,8.85
2023-01-22T13:26:06.258Z,9.98
2023-01-22T13:28:32.955Z,9.98
2023-01-22T13:31:03.826Z,9.45
2023-01-22T13:33:30.648Z,12.43
2023-01-22T13:35:57.615Z,14.13
2023-01-22T13:38:25.343Z,10.45
2023-01-22T13:40:57.935Z,11.05
2023-01-22T13:43:24.571Z,10.25
2023-01-22T13:45:52.109Z,11.95
2023-01-22T13:48:19.617Z,14.20
2023-01-22T13:50:48.090Z,14.18
2023-01-22T13:53:21.142Z,10.63
2023-01-22T13:55:48.076Z,12.88
2023-01-22T13:58:46.559Z,12.93
2023-01-22T14:01:25.804Z,10.93
2023-01-22T14:03:58.166Z,11.68
2023-01-22T14:06:24.394Z,12.40
2023-01-22T14:08:51.855Z,12.50
2023-01-22T14:11:18.722Z,14.95
2023-01-22T14:13:46.225Z,12.07
2023-01-22T14:16:13.379Z,11.88
2023-01-22T14:18:40.153Z,13.20
2023-01-22T14:21:06.754Z,19.65
2023-01-22T14:23:33.284Z,15.30
2023-01-22T14:26:01.816Z,15.68
2023-01-22T14:28:29.097Z,13.15
2023-01-22T14:30:55.900Z,13.50
2023-01-22T14:33:24.411Z,15.88
2023-01-22T14:35:51.298Z,14.73
2023-01-22T14:38:18.871Z,16.40
2023-01-22T14:40:45.160Z,12.90
2023-01-22T14:43:11.755Z,15.68
2023-01-22T14:45:41.408Z,13.77
2023-01-22T14:48:07.907Z,12.50
2023-01-22T14:50:34.281Z,11.25
2023-01-22T14:53:00.637Z,14.45
2023-01-22T14:55:26.973Z,10.98
2023-01-22T14:57:54.701Z,10.52
2023-01-22T15:00:21.362Z,12.85
2023-01-22T15:02:48.391Z,15.10
2023-01-22T15:05:14.770Z,15.93
2023-01-22T15:07:41.145Z,14.20
2023-01-22T15:10:08.086Z,14.13
2023-01-22T15:12:34.347Z,15.32
2023-01-22T15:15:00.610Z,18.15
2023-01-22T15:17:26.966Z,12.63
2023-01-22T15:19:53.247Z,12.88
2023-01-22T15:22:19.531Z,18.75
2023-01-22T15:24:45.828Z,12.70
2023-01-22T15:27:12.322Z,12.45
2023-01-22T15:29:38.680Z,13.75
2023-01-22T15:32:04.991Z,14.32
2023-01-22T15:34:31.301Z,13.50
2023-01-22T15:36:57.671Z,14.73
2023-01-22T15:39:23.921Z,18.08
2023-01-22T15:41:50.168Z,14.95
2023-01-22T15:44:16.494Z,11.15
2023-01-22T15:46:42.951Z,11.38
2023-01-22T15:49:10.319Z,14.90
2023-01-22T15:51:36.640Z,15.43
2023-01-22T15:54:04.031Z,15.02
2023-01-22T15:56:31.441Z,15.20
2023-01-22T15:58:58.389Z,13.90
2023-01-22T16:01:25.778Z,11.93
2023-01-22T16:03:53.213Z,15.48
2023-01-22T16:06:23.785Z,15.85
2023-01-22T16:08:50.655Z,18.80
2023-01-22T16:11:17.431Z,12.68
2023-01-22T16:13:43.877Z,14.23
2023-01-22T16:16:25.519Z,16.25
2023-01-22T16:18:52.517Z,13.43
2023-01-22T16:21:19.835Z,12.75
2023-01-22T16:23:46.673Z,13.32
2023-01-22T16:26:16.275Z,12.98
2023-01-22T16:28:43.347Z,13.80
2023-01-22T16:31:10.995Z,11.05
2023-01-22T16:33:39.156Z,12.57
2023-01-22T16:36:10.126Z,13.43
2023-01-22T16:38:36.824Z,13.70
2023-01-22T16:41:24.291Z,11.80
2023-01-22T16:43:52.394Z,13.70
2023-01-22T16:46:19.530Z,11.40
2023-01-22T16:48:46.223Z,14.25
2023-01-22T16:51:24.894Z,14.57
2023-01-22T16:53:51.790Z,13.07
2023-01-22T16:56:18.274Z,12.73
2023-01-22T16:58:45.795Z,12.07
2023-01-22T17:01:13.403Z,11.65
2023-01-22T17:03:39.857Z,13.25
2023-01-22T17:06:06.258Z,14.45
2023-01-22T17:08:32.876Z,12.70
2023-01-22T17:10:59.175Z,11.70
2023-01-22T17:13:25.443Z,13.93
2023-01-22T17:15:53.518Z,12.75
2023-01-22T17:18:19.840Z,12.32
2023-01-22T17:21:00.918Z,15.48
2023-01-22T17:23:27.816Z,10.93
2023-01-22T17:25:54.116Z,15.05
2023-01-22T17:28:22.045Z,13.70
2023-01-22T17:30:48.759Z,19.08
2023-01-22T17:33:15.102Z,16.98
2023-01-22T17:35:41.994Z,18.55
2023-01-22T17:38:08.793Z,19.30
2023-01-22T17:40:36.516Z,16.80
2023-01-22T17:43:02.945Z,17.27
2023-01-22T17:45:29.227Z,17.52
2023-01-22T17:47:55.526Z,16.52
2023-01-22T17:50:21.795Z,16.80
2023-01-22T17:52:48.370Z,13.73
2023-01-22T17:55:14.646Z,15.63
2023-01-22T17:57:41.548Z,16.65
2023-01-22T18:00:09.993Z,17.48
2023-01-22T18:02:36.267Z,20.13
2023-01-22T18:05:02.717Z,17.73
2023-01-22T18:07:29.065Z,13.15
2023-01-22T18:09:55.319Z,18.42
2023-01-22T18:12:22.611Z,17.92
2023-01-22T18:14:49.039Z,14.88
2023-01-22T18:17:15.377Z,16.63
2023-01-22T18:19:41.738Z,15.32
2023-01-22T18:22:08.004Z,16.27
2023-01-22T18:24:36.248Z,13.63
2023-01-22T18:27:03.621Z,16.08
2023-01-22T18:29:29.987Z,11.55
2023-01-22T18:31:56.751Z,13.23
2023-01-22T18:34:23.230Z,15.85
2023-01-22T18:36:49.525Z,21.17
2023-01-22T18:39:17.666Z,17.52
2023-01-22T18:41:45.092Z,13.95
2023-01-22T18:44:13.067Z,16.00
2023-01-22T18:46:42.205Z,10.98
2023-01-22T18:49:11.807Z,14.57
2023-01-22T18:51:38.387Z,13.00
2023-01-22T18:54:07.572Z,15.93
2023-01-22T18:56:34.254Z,11.60
2023-01-22T18:59:00.930Z,15.27
2023-01-22T19:01:29.005Z,16.67
2023-01-22T19:03:57.997Z,13.80
2023-01-22T19:06:26.971Z,12.43
2023-01-22T19:08:53.433Z,16.50
2023-01-22T19:11:19.817Z,16.70
2023-01-22T19:13:46.200Z,20.08
2023-01-22T19:16:13.889Z,15.20
2023-01-22T19:18:46.342Z,14.82
2023-01-22T19:21:14.286Z,12.93
2023-01-22T19:23:43.665Z,14.65
2023-01-22T19:26:14.685Z,11.48
2023-01-22T19:28:41.073Z,16.90
2023-01-22T19:31:17.850Z,17.65
2023-01-22T19:33:44.436Z,11.55
2023-01-22T19:36:11.322Z,18.40
2023-01-22T19:38:38.317Z,17.55
2023-01-22T19:41:06.054Z,13.85
2023-01-22T19:43:32.848Z,16.27
2023-01-22T19:46:05.179Z,15.50
2023-01-22T19:48:31.476Z,21.38
2023-01-22T19:50:58.819Z,18.35
2023-01-22T19:53:25.314Z,16.35
2023-01-22T19:55:51.666Z,13.88
2023-01-22T19:58:18.342Z,17.00
2023-01-22T20:00:44.714Z,16.15
2023-01-22T20:03:11.004Z,16.15
2023-01-22T20:05:40.945Z,14.77
2023-01-22T20:08:07.632Z,18.88
2023-01-22T20:10:34.072Z,14.13
2023-01-22T20:13:00.315Z,16.17
2023-01-22T20:15:26.673Z,21.00
2023-01-22T20:17:54.447Z,17.92
2023-01-22T20:20:22.276Z,16.48
2023-01-22T20:22:49.269Z,17.42
2023-01-22T20:25:15.660Z,16.50
2023-01-22T20:27:42.271Z,19.05
2023-01-22T20:30:08.946Z,21.05
2023-01-22T20:32:35.690Z,23.17
2023-01-22T20:35:02.011Z,17.05
2023-01-22T20:37:28.303Z,17.98
2023-01-22T20:39:54.779Z,13.32
2023-01-22T20:42:21.172Z,20.73
2023-01-22T20:44:47.540Z,17.52
2023-01-22T20:47:13.836Z,17.98
2023-01-22T20:49:40.205Z,14.40
2023-01-22T20:52:06.568Z,17.13
2023-01-22T20:54:34.077Z,19.67
2023-01-22T20:57:01.584Z,20.15
2023-01-22T20:59:28.658Z,17.48
2023-01-22T21:01:55.025Z,24.52
2023-01-22T21:04:21.424Z,15.00
2023-01-22T21:06:47.718Z,16.15
2023-01-22T21:09:14.144Z,18.40
2023-01-22T21:11:41.472Z,16.55
2023-01-22T21:14:09.321Z,16.20
2023-01-22T21:16:37.003Z,16.13
2023-01-22T21:19:05.423Z,18.60
2023-01-22T21:21:32.250Z,20.55
2023-01-22T21:23:58.597Z,25.67
2023-01-22T21:26:26.504Z,19.85
2023-01-22T21:28:56.724Z,20.58
2023-01-22T21:31:24.368Z,19.10
2023-01-22T21:33:52.530Z,16.05
2023-01-22T21:36:19.296Z,17.52
2023-01-22T21:38:49.047Z,14.85
2023-01-22T21:41:16.587Z,15.13
2023-01-22T21:44:02.500Z,21.23
2023-01-22T21:46:30.315Z,16.30
2023-01-22T21:48:58.555Z,16.35
2023-01-22T21:51:25.351Z,15.25
2023-01-22T21:53:55.116Z,19.13
2023-01-22T21:56:21.370Z,23.02
2023-01-22T21:58:47.717Z,17.13
2023-01-22T22:01:18.898Z,22.70
2023-01-22T22:03:45.163Z,18.88
2023-01-22T22:06:13.206Z,14.25
2023-01-22T22:08:40.178Z,18.83
2023-01-22T22:11:07.084Z,17.38
2023-01-22T22:13:35.046Z,18.73
2023-01-22T22:16:02.592Z,21.50
2023-01-22T22:18:29.007Z,19.50
2023-01-22T22:20:59.167Z,14.77
2023-01-22T22:23:25.404Z,26.48
2023-01-22T22:25:51.880Z,17.77
2023-01-22T22:28:18.491Z,16.75
2023-01-22T22:30:44.873Z,15.55
2023-01-22T22:33:11.440Z,20.23
2023-01-22T22:35:37.900Z,16.08
2023-01-22T22:38:04.495Z,15.68
2023-01-22T22:40:31.030Z,14.65
2023-01-22T22:42:57.288Z,16.88
2023-01-22T22:45:23.646Z,15.43
2023-01-22T22:47:49.965Z,14.50
2023-01-22T22:50:16.364Z,16.73
2023-01-22T22:52:43.412Z,14.75
2023-01-22T22:55:09.826Z,16.17
2023-01-22T22:57:36.203Z,18.50
2023-01-22T23:00:06.458Z,18.45
2023-01-22T23:02:32.715Z,15.68
2023-01-22T23:04:59.083Z,19.27
2023-01-22T23:07:25.357Z,19.75
2023-01-22T23:09:51.690Z,13.60
2023-01-22T23:12:17.941Z,17.52
2023-01-22T23:14:44.194Z,19.67
2023-01-22T23:17:10.506Z,15.20
2023-01-22T23:19:36.778Z,17.90
2023-01-22T23:22:03.187Z,16.85
2023-01-22T23:24:29.503Z,18.67
2023-01-22T23:26:55.915Z,18.08
2023-01-22T23:29:24.095Z,15.82
2023-01-22T23:31:50.756Z,13.80
2023-01-22T23:34:19.323Z,17.05
2023-01-22T23:36:46.341Z,20.30
2023-01-22T23:39:13.804Z,15.63
2023-01-22T23:41:40.558Z,16.40
2023-01-22T23:44:07.081Z,14.75
2023-01-22T23:46:35.001Z,19.95
2023-01-22T23:49:01.559Z,15.55
2023-01-22T23:51:28.082Z,13.88
2023-01-22T23:53:54.607Z,17.40
2023-01-22T23:56:22.164Z,17.70
2023-01-22T23:58:48.553Z,23.75
